createdAt,value
2023-04-30T04:00:40.346Z,6.60
2023-04-30T04:03:10.457Z,7.20
2023-04-30T04:05:38.943Z,7.20
2023-04-30T04:08:07.875Z,7.10
2023-04-30T04:10:36.803Z,7.20
2023-04-30T04:13:05.268Z,7.20
2023-04-30T04:15:33.496Z,7.40
2023-04-30T04:18:01.952Z,6.90
2023-04-30T04:20:31.523Z,7.40
2023-04-30T04:22:59.846Z,7.30
2023-04-30T04:25:28.648Z,7.50
2023-04-30T04:27:56.903Z,7.10
2023-04-30T04:30:25.121Z,7.30
2023-04-30T04:32:54.012Z,7.40
2023-04-30T04:35:22.739Z,7.60
2023-04-30T04:37:52.327Z,7.50
2023-04-30T04:40:20.831Z,7.40
2023-04-30T04:42:51.407Z,8.20
2023-04-30T04:45:20.490Z,7.90
2023-04-30T04:47:49.416Z,7.70
2023-04-30T04:50:18.080Z,7.90
2023-04-30T04:52:46.319Z,8.00
2023-04-30T04:55:16.114Z,7.90
2023-04-30T04:57:44.323Z,7.80
2023-04-30T05:00:14.092Z,7.70
2023-04-30T05:02:42.400Z,7.90
2023-04-30T05:05:11.510Z,8.00
2023-04-30T05:07:39.731Z,8.40
2023-04-30T05:10:10.363Z,8.70
2023-04-30T05:12:39.926Z,8.20
2023-04-30T05:15:09.533Z,8.20
2023-04-30T05:17:37.816Z,8.40
2023-04-30T05:20:08.670Z,8.50
2023-04-30T05:22:36.886Z,8.40
2023-04-30T05:25:05.967Z,8.30
2023-04-30T05:27:34.216Z,8.70
2023-04-30T05:30:04.359Z,9.00
2023-04-30T05:32:32.619Z,8.40
2023-04-30T05:35:00.910Z,8.20
2023-04-30T05:37:29.179Z,8.70
2023-04-30T05:39:57.388Z,8.40
2023-04-30T05:42:25.873Z,8.90
2023-04-30T05:44:55.461Z,8.90
2023-04-30T05:47:25.092Z,8.90
2023-04-30T05:49:53.810Z,8.70
2023-04-30T05:52:22.151Z,8.90
2023-04-30T05:54:50.641Z,9.40
2023-04-30T05:57:18.986Z,9.50
2023-04-30T05:59:47.237Z,9.80
2023-04-30T06:02:15.706Z,9.60
2023-04-30T06:04:45.533Z,9.90
2023-04-30T06:07:14.171Z,10.00
2023-04-30T06:09:42.341Z,10.10
2023-04-30T06:12:11.109Z,10.30
2023-04-30T06:14:39.615Z,10.50
2023-04-30T06:17:07.837Z,10.40
2023-04-30T06:19:36.145Z,10.20
2023-04-30T06:22:06.215Z,10.40
2023-04-30T06:24:34.452Z,10.40
2023-04-30T06:27:02.931Z,10.50
2023-04-30T06:29:31.175Z,10.50
2023-04-30T06:31:59.508Z,10.60
2023-04-30T06:34:27.806Z,10.40
2023-04-30T06:36:56.447Z,10.10
2023-04-30T06:39:26.592Z,10.20
2023-04-30T06:41:54.778Z,10.50
2023-04-30T06:44:23.069Z,10.60
2023-04-30T06:46:51.599Z,10.60
2023-04-30T06:49:19.728Z,10.60
2023-04-30T06:51:47.854Z,11.10
2023-04-30T06:54:16.320Z,11.10
2023-04-30T06:56:45.924Z,11.10
2023-04-30T06:59:14.072Z,10.40
2023-04-30T07:01:42.258Z,10.70
2023-04-30T07:04:10.515Z,10.80
2023-04-30T07:06:38.814Z,11.40
2023-04-30T07:09:07.091Z,11.10
2023-04-30T07:11:35.345Z,10.90
2023-04-30T07:14:05.019Z,10.80
2023-04-30T07:16:34.186Z,10.60
2023-04-30T07:19:02.482Z,10.40
2023-04-30T07:21:32.769Z,10.80
2023-04-30T07:24:01.098Z,11.10
2023-04-30T07:26:29.341Z,11.20
2023-04-30T07:28:57.592Z,11.30
2023-04-30T07:31:28.116Z,11.40
2023-04-30T07:33:56.375Z,10.90
2023-04-30T07:36:26.611Z,11.20
2023-04-30T07:38:54.912Z,11.30
2023-04-30T07:41:23.141Z,10.70
2023-04-30T07:43:51.442Z,10.30
2023-04-30T07:46:19.764Z,9.80
2023-04-30T07:48:49.373Z,10.00
2023-04-30T07:51:18.060Z,10.50
2023-04-30T07:53:47.000Z,10.30
2023-04-30T07:56:15.277Z,10.40
2023-04-30T07:58:43.692Z,10.80
2023-04-30T08:01:11.920Z,11.00
2023-04-30T08:03:40.420Z,11.20
2023-04-30T08:06:10.222Z,11.60
2023-04-30T08:08:39.576Z,11.80
2023-04-30T08:11:07.957Z,11.40
2023-04-30T08:13:36.749Z,11.90
2023-04-30T08:16:06.043Z,11.70
2023-04-30T08:18:34.327Z,12.20
2023-04-30T08:21:02.674Z,12.10
2023-04-30T08:23:32.433Z,12.20
2023-04-30T08:26:00.555Z,12.40
2023-04-30T08:28:28.811Z,12.50
2023-04-30T08:30:57.119Z,11.80
2023-04-30T08:33:25.336Z,11.30
2023-04-30T08:35:53.884Z,11.90
2023-04-30T08:38:22.130Z,11.60
2023-04-30T08:41:07.593Z,12.20
2023-04-30T08:43:36.781Z,12.40
2023-04-30T08:46:06.979Z,12.30
2023-04-30T08:48:36.260Z,11.70
2023-04-30T08:51:05.702Z,11.80
2023-04-30T08:53:38.216Z,11.50
2023-04-30T08:56:10.886Z,11.80
2023-04-30T08:58:39.583Z,11.60
2023-04-30T09:01:09.734Z,12.00
2023-04-30T09:03:38.473Z,12.10
2023-04-30T09:06:06.954Z,12.60
2023-04-30T09:08:46.933Z,13.20
2023-04-30T09:11:28.874Z,12.30
2023-04-30T09:13:58.938Z,11.50
2023-04-30T09:16:30.780Z,12.10
2023-04-30T09:18:59.188Z,12.30
2023-04-30T09:21:37.771Z,12.40
2023-04-30T09:24:08.109Z,12.00
2023-04-30T09:26:39.646Z,12.70
2023-04-30T09:29:08.853Z,12.50
2023-04-30T09:31:38.951Z,12.80
2023-04-30T09:34:07.561Z,12.10
2023-04-30T09:36:36.222Z,12.10
2023-04-30T09:39:14.221Z,12.90
2023-04-30T09:41:45.259Z,12.30
2023-04-30T09:44:29.584Z,12.90
2023-04-30T09:46:59.250Z,12.40
2023-04-30T09:49:28.235Z,12.70
2023-04-30T09:51:57.675Z,13.30
2023-04-30T09:54:28.821Z,13.70
2023-04-30T09:57:01.466Z,13.70
2023-04-30T09:59:32.318Z,14.10
2023-04-30T10:02:02.006Z,14.00
2023-04-30T10:04:35.090Z,13.90
2023-04-30T10:07:07.938Z,14.30
2023-04-30T10:09:42.464Z,14.40
2023-04-30T10:12:16.777Z,14.10
2023-04-30T10:14:53.455Z,14.40
2023-04-30T10:17:28.170Z,14.20
2023-04-30T10:20:05.505Z,14.10
2023-04-30T10:22:35.942Z,14.10
2023-04-30T10:25:04.834Z,14.90
2023-04-30T10:27:35.448Z,15.90
2023-04-30T10:30:04.356Z,16.60
2023-04-30T10:32:43.136Z,16.50
2023-04-30T10:35:20.935Z,16.90
2023-04-30T10:37:56.163Z,16.30
2023-04-30T10:40:27.760Z,15.90
2023-04-30T10:42:57.558Z,16.80
2023-04-30T10:45:38.170Z,17.00
2023-04-30T10:48:08.345Z,17.30
2023-04-30T10:50:45.805Z,18.20
2023-04-30T10:53:16.850Z,18.30
2023-04-30T10:55:50.176Z,18.60
2023-04-30T10:58:32.199Z,18.90
2023-04-30T11:01:07.043Z,18.70
2023-04-30T11:03:37.395Z,19.00
2023-04-30T11:06:14.622Z,19.90
2023-04-30T11:08:47.036Z,19.70
2023-04-30T11:11:21.748Z,20.30
2023-04-30T11:14:02.689Z,20.10
2023-04-30T11:16:31.963Z,20.50
2023-04-30T11:19:10.067Z,21.00
2023-04-30T11:21:42.365Z,21.20
2023-04-30T11:24:11.126Z,22.20
2023-04-30T11:27:06.671Z,23.90
2023-04-30T11:29:37.588Z,24.20
2023-04-30T11:32:06.670Z,24.50
2023-04-30T11:34:36.378Z,23.60
2023-04-30T11:37:04.968Z,24.90
2023-04-30T11:39:37.572Z,25.60
2023-04-30T11:42:05.839Z,25.70
2023-04-30T11:44:35.834Z,26.00
2023-04-30T11:47:04.199Z,26.30
2023-04-30T11:49:33.460Z,26.10
2023-04-30T11:52:02.001Z,27.10
2023-04-30T11:54:33.346Z,27.60
2023-04-30T11:57:04.253Z,28.40
2023-04-30T11:59:33.707Z,29.30
2023-04-30T12:02:03.253Z,29.80
2023-04-30T12:04:31.673Z,30.70
2023-04-30T12:07:02.339Z,31.20
2023-04-30T12:09:31.004Z,30.70
2023-04-30T12:11:59.364Z,32.70
2023-04-30T12:14:29.526Z,33.00
2023-04-30T12:16:59.940Z,33.30
2023-04-30T12:19:29.720Z,33.60
2023-04-30T12:21:58.029Z,36.30
2023-04-30T12:24:29.237Z,36.80
2023-04-30T12:27:00.697Z,36.00
2023-04-30T12:29:29.162Z,35.20
2023-04-30T12:31:58.069Z,35.10
2023-04-30T12:34:33.716Z,37.10
2023-04-30T12:37:03.688Z,37.00
2023-04-30T12:39:36.484Z,36.60
2023-04-30T12:42:05.353Z,39.50
2023-04-30T12:44:43.206Z,39.80
2023-04-30T12:47:11.769Z,39.30
2023-04-30T12:49:41.923Z,38.80
2023-04-30T12:52:13.146Z,39.60
2023-04-30T12:54:42.188Z,39.90
2023-04-30T12:57:11.947Z,40.40
2023-04-30T12:59:42.246Z,38.30
2023-04-30T13:02:12.836Z,40.00
2023-04-30T13:04:43.567Z,41.40
2023-04-30T13:07:12.579Z,41.00
2023-04-30T13:09:41.096Z,38.10
2023-04-30T13:12:09.919Z,38.70
2023-04-30T13:14:38.641Z,40.50
2023-04-30T13:17:09.761Z,40.50
2023-04-30T13:19:38.259Z,41.20
2023-04-30T13:22:08.096Z,43.40
2023-04-30T13:24:37.304Z,43.50
2023-04-30T13:27:05.991Z,44.30
2023-04-30T13:29:34.533Z,44.00
2023-04-30T13:32:04.394Z,43.20
2023-04-30T13:34:33.015Z,42.80
2023-04-30T13:37:01.669Z,43.50
2023-04-30T13:39:31.559Z,42.40
2023-04-30T13:42:00.072Z,44.20
2023-04-30T13:44:28.642Z,43.90
2023-04-30T13:46:57.219Z,45.30
2023-04-30T13:49:26.024Z,44.20
2023-04-30T13:51:54.528Z,44.90
2023-04-30T13:54:23.127Z,45.80
2023-04-30T13:56:53.032Z,45.50
2023-04-30T13:59:21.920Z,45.50
2023-04-30T14:01:50.498Z,46.00
2023-04-30T14:04:19.012Z,46.70
2023-04-30T14:06:49.317Z,47.10
2023-04-30T14:09:18.051Z,47.50
2023-04-30T14:11:46.521Z,45.90
2023-04-30T14:14:16.691Z,47.10
2023-04-30T14:16:45.764Z,46.80
2023-04-30T14:19:14.297Z,44.90
2023-04-30T14:21:43.350Z,44.30
2023-04-30T14:24:12.486Z,44.00
2023-04-30T14:26:41.705Z,44.90
2023-04-30T14:29:10.273Z,45.90
2023-04-30T14:31:40.221Z,47.40
2023-04-30T14:34:08.767Z,47.70
2023-04-30T14:36:38.199Z,47.10
2023-04-30T14:39:07.335Z,47.40
2023-04-30T14:41:37.575Z,46.90
2023-04-30T14:44:06.629Z,47.20
2023-04-30T14:46:35.332Z,46.70
2023-04-30T14:49:05.649Z,46.60
2023-04-30T14:51:34.330Z,45.90
2023-04-30T14:54:03.454Z,46.20
2023-04-30T14:56:32.122Z,46.20
2023-04-30T14:59:00.651Z,44.60
2023-04-30T15:01:30.364Z,46.60
2023-04-30T15:03:58.983Z,45.60
2023-04-30T15:06:29.595Z,45.70
2023-04-30T15:08:58.094Z,46.70
2023-04-30T15:11:26.860Z,46.40
2023-04-30T15:13:55.585Z,46.10
2023-04-30T15:16:24.171Z,44.60
2023-04-30T15:18:52.830Z,45.30
2023-04-30T15:21:21.360Z,45.70
2023-04-30T15:23:51.384Z,43.40
2023-04-30T15:26:19.950Z,43.10
2023-04-30T15:28:48.511Z,44.10
2023-04-30T15:31:17.128Z,43.00
2023-04-30T15:33:45.707Z,42.00
2023-04-30T15:36:14.214Z,43.60
2023-04-30T15:38:42.804Z,44.60
2023-04-30T15:41:12.607Z,44.30
2023-04-30T15:43:41.014Z,44.30
2023-04-30T15:46:09.633Z,44.20
2023-04-30T15:48:38.246Z,45.50
2023-04-30T15:51:06.753Z,44.50
2023-04-30T15:53:35.274Z,44.10
2023-04-30T15:56:04.495Z,43.70
2023-04-30T15:58:34.358Z,43.90
2023-04-30T16:01:02.964Z,45.00
2023-04-30T16:03:31.869Z,45.00
2023-04-30T16:06:02.803Z,44.70
2023-04-30T16:08:32.499Z,43.70
2023-04-30T16:11:01.961Z,43.60
2023-04-30T16:13:30.602Z,43.20
2023-04-30T16:16:00.540Z,42.80
2023-04-30T16:18:29.857Z,42.40
2023-04-30T16:20:58.527Z,42.10
2023-04-30T16:23:27.177Z,42.60
2023-04-30T16:25:56.509Z,42.20
2023-04-30T16:28:28.155Z,35.70
2023-04-30T16:30:57.445Z,39.90
2023-04-30T16:33:28.053Z,41.20
2023-04-30T16:35:56.775Z,39.60
2023-04-30T16:38:25.559Z,38.00
2023-04-30T16:40:54.903Z,38.40
2023-04-30T16:43:23.588Z,39.30
2023-04-30T16:45:52.467Z,38.90
2023-04-30T16:48:21.078Z,39.20
2023-04-30T16:50:51.450Z,38.20
2023-04-30T16:53:20.640Z,37.50
2023-04-30T16:55:49.102Z,37.20
2023-04-30T16:58:17.696Z,35.80
2023-04-30T17:00:46.356Z,32.20
2023-04-30T17:03:14.979Z,30.80
2023-04-30T17:05:43.994Z,29.30
2023-04-30T17:08:13.826Z,27.90
2023-04-30T17:10:42.597Z,26.80
2023-04-30T17:13:11.314Z,25.50
2023-04-30T17:15:39.817Z,24.30
2023-04-30T17:18:10.606Z,23.40
2023-04-30T17:20:39.376Z,22.10
2023-04-30T17:23:08.238Z,21.70
2023-04-30T17:25:38.558Z,22.90
2023-04-30T17:28:07.325Z,25.20
2023-04-30T17:30:36.109Z,26.40
2023-04-30T17:33:05.938Z,27.40
2023-04-30T17:35:34.674Z,27.90
2023-04-30T17:38:03.559Z,28.40
2023-04-30T17:40:32.858Z,28.00
2023-04-30T17:43:02.701Z,27.90
2023-04-30T17:45:31.269Z,28.00
2023-04-30T17:47:59.791Z,27.30
2023-04-30T17:50:28.507Z,25.30
2023-04-30T17:52:57.835Z,23.90
2023-04-30T17:55:26.988Z,23.10
2023-04-30T17:57:55.784Z,22.20
2023-04-30T18:00:25.724Z,21.40
2023-04-30T18:02:54.429Z,20.50
2023-04-30T18:05:23.121Z,20.30
2023-04-30T18:07:51.600Z,19.80
2023-04-30T18:10:20.143Z,19.20
2023-04-30T18:12:48.676Z,18.70
2023-04-30T18:15:17.311Z,18.30
2023-04-30T18:17:47.703Z,18.00
2023-04-30T18:20:16.402Z,17.50
2023-04-30T18:22:44.883Z,17.30
2023-04-30T18:25:14.468Z,16.90
2023-04-30T18:27:43.030Z,16.60
2023-04-30T18:30:12.775Z,16.30
2023-04-30T18:32:44.135Z,16.00
2023-04-30T18:35:14.791Z,15.80
2023-04-30T18:37:43.262Z,15.60
2023-04-30T18:40:13.072Z,15.40
2023-04-30T18:42:41.585Z,15.20
2023-04-30T18:45:11.741Z,14.80
2023-04-30T18:47:40.365Z,14.70
2023-04-30T18:50:13.316Z,14.60
2023-04-30T18:52:44.330Z,14.30
2023-04-30T18:55:13.920Z,14.30
2023-04-30T18:57:43.304Z,14.20
2023-04-30T19:00:14.174Z,14.10
2023-04-30T19:02:43.922Z,14.00
2023-04-30T19:05:12.740Z,13.70
2023-04-30T19:07:42.821Z,13.50
2023-04-30T19:10:11.555Z,13.40
2023-04-30T19:12:40.481Z,13.40
2023-04-30T19:15:11.578Z,13.20
2023-04-30T19:17:40.451Z,12.90
2023-04-30T19:20:10.284Z,13.00
2023-04-30T19:22:38.935Z,13.10
2023-04-30T19:25:09.798Z,12.80
2023-04-30T19:27:38.347Z,12.20
2023-04-30T19:30:08.249Z,12.50
2023-04-30T19:32:38.070Z,11.90
2023-04-30T19:35:07.630Z,11.10
2023-04-30T19:37:36.454Z,11.10
2023-04-30T19:40:11.951Z,11.80
2023-04-30T19:42:40.769Z,12.20
2023-04-30T19:45:10.735Z,11.80
2023-04-30T19:47:39.589Z,11.90
2023-04-30T19:50:09.653Z,11.80
2023-04-30T19:52:38.250Z,11.90
2023-04-30T19:55:07.634Z,11.90
2023-04-30T19:57:38.074Z,11.80
2023-04-30T20:00:07.770Z,11.70
2023-04-30T20:02:36.427Z,11.60
2023-04-30T20:05:07.018Z,11.50
2023-04-30T20:07:35.889Z,11.60
2023-04-30T20:10:04.522Z,11.50
2023-04-30T20:12:33.060Z,11.50
2023-04-30T20:15:03.456Z,11.50
2023-04-30T20:17:33.842Z,11.40
2023-04-30T20:20:02.606Z,11.30
2023-04-30T20:22:31.121Z,11.20
2023-04-30T20:25:02.411Z,11.10
2023-04-30T20:27:30.998Z,11.20
2023-04-30T20:29:59.627Z,11.30
2023-04-30T20:32:29.456Z,11.00
2023-04-30T20:34:58.698Z,11.10
2023-04-30T20:37:27.475Z,11.00
2023-04-30T20:39:56.338Z,10.90
2023-04-30T20:42:26.987Z,11.00
2023-04-30T20:44:55.675Z,10.60
2023-04-30T20:47:24.574Z,10.90
2023-04-30T20:49:54.950Z,10.90
2023-04-30T20:52:23.677Z,11.00
2023-04-30T20:54:52.171Z,10.70
2023-04-30T20:57:20.790Z,10.60
2023-04-30T20:59:49.322Z,10.50
